sensor_id;sensor_type;location;lat;lon;timestamp;P1;durP1;ratioP1;P2;durP2;ratioP2
77051;SDS011;65980;44.898;8.602;2023-10-09T00:01:34;21.70;;;6.63;;
77051;SDS011;65980;44.898;8.602;2023-10-09T00:04:42;24.90;;;6.80;;
77051;SDS011;65980;44.898;8.602;2023-10-09T00:07:49;15.95;;;6.32;;
77051;SDS011;65980;44.898;8.602;2023-10-09T00:10:53;23.63;;;6.40;;
77051;SDS011;65980;44.898;8.602;2023-10-09T00:14:00;19.48;;;6.45;;
77051;SDS011;65980;44.898;8.602;2023-10-09T00:17:08;20.42;;;6.60;;
77051;SDS011;65980;44.898;8.602;2023-10-09T00:20:14;20.02;;;6.78;;
77051;SDS011;65980;44.898;8.602;2023-10-09T00:23:24;14.15;;;6.75;;
77051;SDS011;65980;44.898;8.602;2023-10-09T00:26:30;18.10;;;6.22;;
77051;SDS011;65980;44.898;8.602;2023-10-09T00:29:47;21.70;;;6.03;;
77051;SDS011;65980;44.898;8.602;2023-10-09T00:32:53;18.08;;;5.55;;
77051;SDS011;65980;44.898;8.602;2023-10-09T00:36:04;22.30;;;6.38;;
77051;SDS011;65980;44.898;8.602;2023-10-09T00:39:16;22.58;;;5.38;;
77051;SDS011;65980;44.898;8.602;2023-10-09T00:42:36;18.90;;;5.93;;
77051;SDS011;65980;44.898;8.602;2023-10-09T00:45:43;16.48;;;5.85;;
77051;SDS011;65980;44.898;8.602;2023-10-09T00:48:58;18.15;;;6.05;;
77051;SDS011;65980;44.898;8.602;2023-10-09T00:52:07;16.02;;;5.72;;
77051;SDS011;65980;44.898;8.602;2023-10-09T00:55:22;18.60;;;5.63;;
77051;SDS011;65980;44.898;8.602;2023-10-09T00:58:43;25.25;;;6.40;;
77051;SDS011;65980;44.898;8.602;2023-10-09T01:01:47;22.15;;;6.03;;
77051;SDS011;65980;44.898;8.602;2023-10-09T01:05:11;14.75;;;6.47;;
77051;SDS011;65980;44.898;8.602;2023-10-09T01:08:23;18.15;;;6.00;;
77051;SDS011;65980;44.898;8.602;2023-10-09T01:11:32;17.30;;;5.72;;
77051;SDS011;65980;44.898;8.602;2023-10-09T01:14:38;14.35;;;5.80;;
77051;SDS011;65980;44.898;8.602;2023-10-09T01:17:46;14.55;;;6.30;;
77051;SDS011;65980;44.898;8.602;2023-10-09T01:20:50;18.00;;;6.43;;
77051;SDS011;65980;44.898;8.602;2023-10-09T01:23:56;14.75;;;6.97;;
77051;SDS011;65980;44.898;8.602;2023-10-09T01:27:13;20.60;;;7.30;;
77051;SDS011;65980;44.898;8.602;2023-10-09T01:30:20;14.70;;;6.72;;
77051;SDS011;65980;44.898;8.602;2023-10-09T01:33:26;15.93;;;7.20;;
77051;SDS011;65980;44.898;8.602;2023-10-09T01:36:32;19.35;;;7.22;;
77051;SDS011;65980;44.898;8.602;2023-10-09T01:39:38;17.38;;;5.88;;
77051;SDS011;65980;44.898;8.602;2023-10-09T01:42:46;24.63;;;6.70;;
77051;SDS011;65980;44.898;8.602;2023-10-09T01:45:51;14.73;;;6.63;;
77051;SDS011;65980;44.898;8.602;2023-10-09T01:48:57;16.23;;;6.90;;
77051;SDS011;65980;44.898;8.602;2023-10-09T01:52:04;18.02;;;7.20;;
77051;SDS011;65980;44.898;8.602;2023-10-09T01:55:13;16.92;;;7.85;;
77051;SDS011;65980;44.898;8.602;2023-10-09T01:58:32;18.92;;;7.65;;
77051;SDS011;65980;44.898;8.602;2023-10-09T02:01:37;22.48;;;7.72;;
77051;SDS011;65980;44.898;8.602;2023-10-09T02:04:46;16.85;;;7.45;;
77051;SDS011;65980;44.898;8.602;2023-10-09T02:07:51;18.75;;;7.80;;
77051;SDS011;65980;44.898;8.602;2023-10-09T02:10:56;16.52;;;7.65;;
77051;SDS011;65980;44.898;8.602;2023-10-09T02:14:02;16.15;;;7.38;;
77051;SDS011;65980;44.898;8.602;2023-10-09T02:17:14;18.35;;;8.93;;
77051;SDS011;65980;44.898;8.602;2023-10-09T02:20:21;16.60;;;8.52;;
77051;SDS011;65980;44.898;8.602;2023-10-09T02:23:33;18.08;;;9.52;;
77051;SDS011;65980;44.898;8.602;2023-10-09T02:26:48;16.77;;;9.88;;
77051;SDS011;65980;44.898;8.602;2023-10-09T02:29:55;14.85;;;8.55;;
77051;SDS011;65980;44.898;8.602;2023-10-09T02:33:01;19.00;;;9.55;;
77051;SDS011;65980;44.898;8.602;2023-10-09T02:36:12;18.88;;;9.38;;
77051;SDS011;65980;44.898;8.602;2023-10-09T02:39:16;30.23;;;11.10;;
77051;SDS011;65980;44.898;8.602;2023-10-09T02:42:26;20.75;;;11.00;;
77051;SDS011;65980;44.898;8.602;2023-10-09T02:45:31;20.73;;;10.90;;
77051;SDS011;65980;44.898;8.602;2023-10-09T02:48:38;21.90;;;10.10;;
77051;SDS011;65980;44.898;8.602;2023-10-09T02:51:46;20.33;;;11.52;;
77051;SDS011;65980;44.898;8.602;2023-10-09T02:54:56;22.52;;;10.88;;
77051;SDS011;65980;44.898;8.602;2023-10-09T02:58:04;23.75;;;10.48;;
77051;SDS011;65980;44.898;8.602;2023-10-09T03:01:24;18.70;;;9.70;;
77051;SDS011;65980;44.898;8.602;2023-10-09T03:04:29;18.88;;;8.52;;
77051;SDS011;65980;44.898;8.602;2023-10-09T03:07:33;20.48;;;9.82;;
77051;SDS011;65980;44.898;8.602;2023-10-09T03:10:38;22.25;;;8.48;;
77051;SDS011;65980;44.898;8.602;2023-10-09T03:13:42;14.90;;;8.20;;
77051;SDS011;65980;44.898;8.602;2023-10-09T03:16:48;16.75;;;8.25;;
77051;SDS011;65980;44.898;8.602;2023-10-09T03:19:53;21.17;;;8.73;;
77051;SDS011;65980;44.898;8.602;2023-10-09T03:22:59;19.17;;;8.52;;
77051;SDS011;65980;44.898;8.602;2023-10-09T03:26:05;27.38;;;9.27;;
77051;SDS011;65980;44.898;8.602;2023-10-09T03:29:12;17.02;;;8.70;;
77051;SDS011;65980;44.898;8.602;2023-10-09T03:32:16;17.30;;;8.02;;
77051;SDS011;65980;44.898;8.602;2023-10-09T03:38:28;15.13;;;7.43;;
77051;SDS011;65980;44.898;8.602;2023-10-09T03:41:38;16.30;;;8.02;;
77051;SDS011;65980;44.898;8.602;2023-10-09T03:44:46;16.40;;;7.78;;
77051;SDS011;65980;44.898;8.602;2023-10-09T03:47:57;18.13;;;8.15;;
77051;SDS011;65980;44.898;8.602;2023-10-09T03:51:07;14.32;;;7.70;;
77051;SDS011;65980;44.898;8.602;2023-10-09T03:54:16;16.92;;;8.50;;
77051;SDS011;65980;44.898;8.602;2023-10-09T03:57:24;19.83;;;8.05;;
77051;SDS011;65980;44.898;8.602;2023-10-09T04:00:29;19.70;;;7.65;;
77051;SDS011;65980;44.898;8.602;2023-10-09T04:03:33;18.13;;;8.10;;
77051;SDS011;65980;44.898;8.602;2023-10-09T04:06:40;18.90;;;6.78;;
77051;SDS011;65980;44.898;8.602;2023-10-09T04:09:44;16.45;;;7.07;;
77051;SDS011;65980;44.898;8.602;2023-10-09T04:12:52;17.27;;;7.43;;
77051;SDS011;65980;44.898;8.602;2023-10-09T04:15:56;21.98;;;7.47;;
77051;SDS011;65980;44.898;8.602;2023-10-09T04:19:03;22.00;;;7.55;;
77051;SDS011;65980;44.898;8.602;2023-10-09T04:22:15;17.55;;;7.28;;
77051;SDS011;65980;44.898;8.602;2023-10-09T04:25:30;13.48;;;7.05;;
77051;SDS011;65980;44.898;8.602;2023-10-09T04:28:45;26.60;;;7.57;;
77051;SDS011;65980;44.898;8.602;2023-10-09T04:31:57;15.02;;;6.65;;
77051;SDS011;65980;44.898;8.602;2023-10-09T04:35:04;22.95;;;7.20;;
77051;SDS011;65980;44.898;8.602;2023-10-09T04:38:29;17.30;;;7.30;;
77051;SDS011;65980;44.898;8.602;2023-10-09T04:41:38;15.77;;;7.43;;
77051;SDS011;65980;44.898;8.602;2023-10-09T04:44:46;24.00;;;6.90;;
77051;SDS011;65980;44.898;8.602;2023-10-09T04:48:10;20.45;;;7.15;;
77051;SDS011;65980;44.898;8.602;2023-10-09T04:51:14;19.88;;;6.90;;
77051;SDS011;65980;44.898;8.602;2023-10-09T04:54:24;20.42;;;6.88;;
77051;SDS011;65980;44.898;8.602;2023-10-09T04:57:44;19.45;;;6.57;;
77051;SDS011;65980;44.898;8.602;2023-10-09T05:00:54;15.98;;;6.78;;
77051;SDS011;65980;44.898;8.602;2023-10-09T05:04:05;15.25;;;7.00;;
77051;SDS011;65980;44.898;8.602;2023-10-09T05:07:31;19.85;;;6.75;;
77051;SDS011;65980;44.898;8.602;2023-10-09T05:10:55;23.35;;;5.35;;
77051;SDS011;65980;44.898;8.602;2023-10-09T05:14:05;19.58;;;5.82;;
77051;SDS011;65980;44.898;8.602;2023-10-09T05:17:19;15.02;;;5.25;;
77051;SDS011;65980;44.898;8.602;2023-10-09T05:20:30;14.93;;;5.78;;
77051;SDS011;65980;44.898;8.602;2023-10-09T05:24:02;18.52;;;5.75;;
77051;SDS011;65980;44.898;8.602;2023-10-09T05:27:38;19.67;;;5.72;;
77051;SDS011;65980;44.898;8.602;2023-10-09T05:30:51;14.07;;;5.38;;
77051;SDS011;65980;44.898;8.602;2023-10-09T05:34:07;13.98;;;5.28;;
77051;SDS011;65980;44.898;8.602;2023-10-09T05:37:16;12.52;;;5.07;;
77051;SDS011;65980;44.898;8.602;2023-10-09T05:40:26;20.15;;;5.78;;
77051;SDS011;65980;44.898;8.602;2023-10-09T05:43:34;22.95;;;5.93;;
77051;SDS011;65980;44.898;8.602;2023-10-09T05:47:04;16.05;;;5.60;;
77051;SDS011;65980;44.898;8.602;2023-10-09T05:50:49;17.58;;;6.15;;
77051;SDS011;65980;44.898;8.602;2023-10-09T05:54:22;29.27;;;6.28;;
77051;SDS011;65980;44.898;8.602;2023-10-09T05:57:56;23.13;;;6.13;;
77051;SDS011;65980;44.898;8.602;2023-10-09T06:01:22;18.13;;;6.10;;
77051;SDS011;65980;44.898;8.602;2023-10-09T06:04:56;17.02;;;6.00;;
77051;SDS011;65980;44.898;8.602;2023-10-09T06:08:05;24.15;;;5.72;;
77051;SDS011;65980;44.898;8.602;2023-10-09T06:12:01;22.92;;;7.78;;
77051;SDS011;65980;44.898;8.602;2023-10-09T06:19:58;18.35;;;7.35;;
77051;SDS011;65980;44.898;8.602;2023-10-09T06:23:31;18.85;;;7.93;;
77051;SDS011;65980;44.898;8.602;2023-10-09T06:27:01;17.92;;;7.72;;
77051;SDS011;65980;44.898;8.602;2023-10-09T06:30:05;21.42;;;9.52;;
77051;SDS011;65980;44.898;8.602;2023-10-09T06:33:16;25.75;;;9.50;;
77051;SDS011;65980;44.898;8.602;2023-10-09T06:36:23;18.40;;;9.20;;
77051;SDS011;65980;44.898;8.602;2023-10-09T06:39:36;17.52;;;9.15;;
77051;SDS011;65980;44.898;8.602;2023-10-09T06:43:05;25.85;;;9.50;;
77051;SDS011;65980;44.898;8.602;2023-10-09T06:47:09;18.60;;;10.25;;
77051;SDS011;65980;44.898;8.602;2023-10-09T06:50:13;24.85;;;9.30;;
77051;SDS011;65980;44.898;8.602;2023-10-09T06:53:26;19.13;;;8.13;;
77051;SDS011;65980;44.898;8.602;2023-10-09T06:56:55;19.13;;;7.80;;
77051;SDS011;65980;44.898;8.602;2023-10-09T07:00:43;18.17;;;7.90;;
77051;SDS011;65980;44.898;8.602;2023-10-09T07:05:08;21.25;;;7.97;;
77051;SDS011;65980;44.898;8.602;2023-10-09T07:15:48;26.60;;;8.60;;
77051;SDS011;65980;44.898;8.602;2023-10-09T07:19:11;21.67;;;8.45;;
77051;SDS011;65980;44.898;8.602;2023-10-09T07:26:59;39.60;;;8.63;;
77051;SDS011;65980;44.898;8.602;2023-10-09T07:30:13;26.75;;;9.68;;
77051;SDS011;65980;44.898;8.602;2023-10-09T07:33:34;26.67;;;8.85;;
77051;SDS011;65980;44.898;8.602;2023-10-09T07:37:00;18.23;;;8.27;;
77051;SDS011;65980;44.898;8.602;2023-10-09T07:40:07;26.38;;;8.35;;
77051;SDS011;65980;44.898;8.602;2023-10-09T07:43:13;24.55;;;8.95;;
77051;SDS011;65980;44.898;8.602;2023-10-09T07:46:20;28.67;;;9.10;;
77051;SDS011;65980;44.898;8.602;2023-10-09T07:49:47;23.30;;;9.05;;
77051;SDS011;65980;44.898;8.602;2023-10-09T07:53:04;23.63;;;7.75;;
77051;SDS011;65980;44.898;8.602;2023-10-09T07:56:28;17.15;;;7.95;;
77051;SDS011;65980;44.898;8.602;2023-10-09T07:59:42;21.40;;;7.43;;
77051;SDS011;65980;44.898;8.602;2023-10-09T08:03:06;22.13;;;7.50;;
77051;SDS011;65980;44.898;8.602;2023-10-09T08:06:27;15.82;;;6.97;;
77051;SDS011;65980;44.898;8.602;2023-10-09T08:10:05;21.40;;;7.40;;
77051;SDS011;65980;44.898;8.602;2023-10-09T08:13:23;16.17;;;6.28;;
77051;SDS011;65980;44.898;8.602;2023-10-09T08:17:06;18.58;;;6.50;;
77051;SDS011;65980;44.898;8.602;2023-10-09T08:20:21;24.67;;;7.82;;
77051;SDS011;65980;44.898;8.602;2023-10-09T08:23:29;17.48;;;6.90;;
77051;SDS011;65980;44.898;8.602;2023-10-09T08:26:38;20.40;;;7.28;;
77051;SDS011;65980;44.898;8.602;2023-10-09T08:29:51;25.35;;;7.85;;
77051;SDS011;65980;44.898;8.602;2023-10-09T08:33:17;15.85;;;6.90;;
77051;SDS011;65980;44.898;8.602;2023-10-09T08:36:32;20.85;;;6.03;;
77051;SDS011;65980;44.898;8.602;2023-10-09T08:43:14;18.23;;;6.28;;
77051;SDS011;65980;44.898;8.602;2023-10-09T08:46:24;16.50;;;6.18;;
77051;SDS011;65980;44.898;8.602;2023-10-09T08:49:30;14.55;;;5.88;;
77051;SDS011;65980;44.898;8.602;2023-10-09T08:53:30;15.52;;;6.05;;
77051;SDS011;65980;44.898;8.602;2023-10-09T08:56:47;28.70;;;7.63;;
77051;SDS011;65980;44.898;8.602;2023-10-09T09:00:03;23.23;;;5.88;;
77051;SDS011;65980;44.898;8.602;2023-10-09T09:03:17;15.38;;;6.10;;
77051;SDS011;65980;44.898;8.602;2023-10-09T09:06:26;15.82;;;5.35;;
77051;SDS011;65980;44.898;8.602;2023-10-09T09:09:44;18.02;;;6.25;;
77051;SDS011;65980;44.898;8.602;2023-10-09T09:13:14;19.75;;;5.90;;
77051;SDS011;65980;44.898;8.602;2023-10-09T09:16:23;16.63;;;5.38;;
77051;SDS011;65980;44.898;8.602;2023-10-09T09:19:34;32.42;;;6.13;;
77051;SDS011;65980;44.898;8.602;2023-10-09T09:22:52;17.08;;;5.10;;
77051;SDS011;65980;44.898;8.602;2023-10-09T09:26:00;12.82;;;5.53;;
77051;SDS011;65980;44.898;8.602;2023-10-09T09:29:14;16.48;;;6.70;;
77051;SDS011;65980;44.898;8.602;2023-10-09T09:32:31;22.23;;;6.05;;
77051;SDS011;65980;44.898;8.602;2023-10-09T09:35:55;17.27;;;5.60;;
77051;SDS011;65980;44.898;8.602;2023-10-09T09:39:37;19.08;;;5.55;;
77051;SDS011;65980;44.898;8.602;2023-10-09T09:42:44;20.10;;;5.25;;
77051;SDS011;65980;44.898;8.602;2023-10-09T09:49:54;22.85;;;5.32;;
77051;SDS011;65980;44.898;8.602;2023-10-09T09:53:17;18.13;;;5.40;;
77051;SDS011;65980;44.898;8.602;2023-10-09T09:56:28;18.67;;;6.40;;
77051;SDS011;65980;44.898;8.602;2023-10-09T09:59:37;15.15;;;4.97;;
77051;SDS011;65980;44.898;8.602;2023-10-09T10:03:01;14.38;;;6.28;;
77051;SDS011;65980;44.898;8.602;2023-10-09T10:06:11;11.73;;;4.93;;
77051;SDS011;65980;44.898;8.602;2023-10-09T10:09:39;11.15;;;5.15;;
77051;SDS011;65980;44.898;8.602;2023-10-09T10:16:04;14.30;;;4.43;;
77051;SDS011;65980;44.898;8.602;2023-10-09T10:44:50;15.48;;;4.28;;
77051;SDS011;65980;44.898;8.602;2023-10-09T10:47:59;18.70;;;4.47;;
77051;SDS011;65980;44.898;8.602;2023-10-09T11:07:00;14.43;;;4.40;;
77051;SDS011;65980;44.898;8.602;2023-10-09T11:28:03;24.88;;;5.03;;
77051;SDS011;65980;44.898;8.602;2023-10-09T11:32:27;20.73;;;5.47;;
77051;SDS011;65980;44.898;8.602;2023-10-09T11:35:36;16.58;;;4.65;;
77051;SDS011;65980;44.898;8.602;2023-10-09T11:38:49;24.63;;;5.35;;
77051;SDS011;65980;44.898;8.602;2023-10-09T11:42:03;17.42;;;5.20;;
77051;SDS011;65980;44.898;8.602;2023-10-09T11:45:19;17.55;;;5.32;;
77051;SDS011;65980;44.898;8.602;2023-10-09T11:48:32;14.05;;;5.13;;
77051;SDS011;65980;44.898;8.602;2023-10-09T11:51:52;16.95;;;5.28;;
77051;SDS011;65980;44.898;8.602;2023-10-09T11:55:16;11.02;;;4.65;;
77051;SDS011;65980;44.898;8.602;2023-10-09T11:58:21;12.98;;;5.00;;
77051;SDS011;65980;44.898;8.602;2023-10-09T12:01:33;14.18;;;4.50;;
77051;SDS011;65980;44.898;8.602;2023-10-09T12:04:43;24.95;;;4.93;;
77051;SDS011;65980;44.898;8.602;2023-10-09T12:07:51;20.33;;;4.82;;
77051;SDS011;65980;44.898;8.602;2023-10-09T12:11:01;19.58;;;4.50;;
77051;SDS011;65980;44.898;8.602;2023-10-09T12:14:07;10.38;;;4.43;;
77051;SDS011;65980;44.898;8.602;2023-10-09T12:17:12;11.43;;;4.50;;
77051;SDS011;65980;44.898;8.602;2023-10-09T12:20:16;17.40;;;3.97;;
77051;SDS011;65980;44.898;8.602;2023-10-09T12:23:36;12.70;;;4.03;;
77051;SDS011;65980;44.898;8.602;2023-10-09T12:26:42;12.57;;;4.18;;
77051;SDS011;65980;44.898;8.602;2023-10-09T12:29:48;17.90;;;4.35;;
77051;SDS011;65980;44.898;8.602;2023-10-09T12:32:53;21.02;;;4.60;;
77051;SDS011;65980;44.898;8.602;2023-10-09T12:35:59;11.40;;;4.15;;
77051;SDS011;65980;44.898;8.602;2023-10-09T12:39:08;22.85;;;5.18;;
77051;SDS011;65980;44.898;8.602;2023-10-09T12:42:37;19.35;;;4.82;;
77051;SDS011;65980;44.898;8.602;2023-10-09T12:45:42;11.38;;;4.30;;
77051;SDS011;65980;44.898;8.602;2023-10-09T12:48:47;17.85;;;5.22;;
77051;SDS011;65980;44.898;8.602;2023-10-09T12:51:53;18.08;;;5.32;;
77051;SDS011;65980;44.898;8.602;2023-10-09T12:54:58;14.98;;;5.20;;
77051;SDS011;65980;44.898;8.602;2023-10-09T12:58:02;21.63;;;5.18;;
77051;SDS011;65980;44.898;8.602;2023-10-09T13:01:13;16.30;;;5.53;;
77051;SDS011;65980;44.898;8.602;2023-10-09T13:04:18;19.17;;;5.00;;
77051;SDS011;65980;44.898;8.602;2023-10-09T13:07:26;12.85;;;5.10;;
77051;SDS011;65980;44.898;8.602;2023-10-09T13:10:30;13.60;;;5.30;;
77051;SDS011;65980;44.898;8.602;2023-10-09T13:13:39;14.35;;;5.07;;
77051;SDS011;65980;44.898;8.602;2023-10-09T13:16:52;12.32;;;5.10;;
77051;SDS011;65980;44.898;8.602;2023-10-09T13:19:56;16.73;;;4.88;;
77051;SDS011;65980;44.898;8.602;2023-10-09T13:23:01;26.05;;;5.35;;
77051;SDS011;65980;44.898;8.602;2023-10-09T13:26:10;17.25;;;5.30;;
77051;SDS011;65980;44.898;8.602;2023-10-09T13:29:34;15.30;;;5.47;;
77051;SDS011;65980;44.898;8.602;2023-10-09T13:32:40;17.38;;;5.20;;
77051;SDS011;65980;44.898;8.602;2023-10-09T13:35:44;16.65;;;5.03;;
77051;SDS011;65980;44.898;8.602;2023-10-09T13:38:55;14.57;;;5.28;;
77051;SDS011;65980;44.898;8.602;2023-10-09T13:42:01;15.88;;;5.50;;
77051;SDS011;65980;44.898;8.602;2023-10-09T13:45:11;12.52;;;5.38;;
77051;SDS011;65980;44.898;8.602;2023-10-09T13:48:19;13.07;;;5.28;;
77051;SDS011;65980;44.898;8.602;2023-10-09T13:51:25;17.55;;;5.38;;
77051;SDS011;65980;44.898;8.602;2023-10-09T13:54:32;16.25;;;5.43;;
77051;SDS011;65980;44.898;8.602;2023-10-09T13:57:44;12.38;;;5.00;;
77051;SDS011;65980;44.898;8.602;2023-10-09T14:00:49;15.60;;;4.95;;
77051;SDS011;65980;44.898;8.602;2023-10-09T14:03:57;15.55;;;4.88;;
77051;SDS011;65980;44.898;8.602;2023-10-09T14:07:03;21.48;;;5.22;;
77051;SDS011;65980;44.898;8.602;2023-10-09T14:10:14;15.45;;;5.70;;
77051;SDS011;65980;44.898;8.602;2023-10-09T14:13:22;14.30;;;4.90;;
77051;SDS011;65980;44.898;8.602;2023-10-09T14:16:33;15.70;;;5.57;;
77051;SDS011;65980;44.898;8.602;2023-10-09T14:19:39;18.77;;;5.68;;
77051;SDS011;65980;44.898;8.602;2023-10-09T14:22:45;13.07;;;5.38;;
77051;SDS011;65980;44.898;8.602;2023-10-09T14:25:49;15.63;;;5.97;;
77051;SDS011;65980;44.898;8.602;2023-10-09T14:28:54;13.73;;;5.45;;
77051;SDS011;65980;44.898;8.602;2023-10-09T14:32:01;19.90;;;5.88;;
77051;SDS011;65980;44.898;8.602;2023-10-09T14:35:07;11.75;;;5.78;;
77051;SDS011;65980;44.898;8.602;2023-10-09T14:38:17;15.55;;;5.57;;
77051;SDS011;65980;44.898;8.602;2023-10-09T14:41:31;19.08;;;5.75;;
77051;SDS011;65980;44.898;8.602;2023-10-09T14:44:37;13.18;;;5.50;;
77051;SDS011;65980;44.898;8.602;2023-10-09T14:47:42;13.05;;;5.40;;
77051;SDS011;65980;44.898;8.602;2023-10-09T14:50:51;10.65;;;5.30;;
77051;SDS011;65980;44.898;8.602;2023-10-09T14:54:03;16.13;;;5.40;;
77051;SDS011;65980;44.898;8.602;2023-10-09T14:57:13;16.98;;;5.38;;
77051;SDS011;65980;44.898;8.602;2023-10-09T15:00:18;17.92;;;5.72;;
77051;SDS011;65980;44.898;8.602;2023-10-09T15:03:27;11.43;;;5.18;;
77051;SDS011;65980;44.898;8.602;2023-10-09T15:06:41;20.23;;;5.75;;
77051;SDS011;65980;44.898;8.602;2023-10-09T15:09:46;12.48;;;5.20;;
77051;SDS011;65980;44.898;8.602;2023-10-09T15:12:56;17.95;;;5.38;;
77051;SDS011;65980;44.898;8.602;2023-10-09T15:16:06;14.13;;;5.43;;
77051;SDS011;65980;44.898;8.602;2023-10-09T15:19:12;16.75;;;5.50;;
77051;SDS011;65980;44.898;8.602;2023-10-09T15:22:17;21.83;;;5.28;;
77051;SDS011;65980;44.898;8.602;2023-10-09T15:25:21;11.88;;;4.90;;
77051;SDS011;65980;44.898;8.602;2023-10-09T15:28:26;12.13;;;5.43;;
77051;SDS011;65980;44.898;8.602;2023-10-09T15:31:39;11.70;;;5.32;;
77051;SDS011;65980;44.898;8.602;2023-10-09T15:34:47;18.30;;;6.20;;
77051;SDS011;65980;44.898;8.602;2023-10-09T15:37:51;16.88;;;5.30;;
77051;SDS011;65980;44.898;8.602;2023-10-09T15:40:56;10.15;;;5.18;;
77051;SDS011;65980;44.898;8.602;2023-10-09T15:44:04;11.85;;;5.30;;
77051;SDS011;65980;44.898;8.602;2023-10-09T15:47:09;11.20;;;5.53;;
77051;SDS011;65980;44.898;8.602;2023-10-09T15:50:17;12.55;;;6.15;;
77051;SDS011;65980;44.898;8.602;2023-10-09T15:53:23;17.98;;;5.72;;
77051;SDS011;65980;44.898;8.602;2023-10-09T15:56:32;13.32;;;6.72;;
77051;SDS011;65980;44.898;8.602;2023-10-09T15:59:46;16.38;;;6.05;;
77051;SDS011;65980;44.898;8.602;2023-10-09T16:02:52;11.75;;;5.65;;
77051;SDS011;65980;44.898;8.602;2023-10-09T16:05:57;12.13;;;5.78;;
77051;SDS011;65980;44.898;8.602;2023-10-09T16:09:04;11.82;;;5.32;;
77051;SDS011;65980;44.898;8.602;2023-10-09T16:12:10;8.73;;;5.45;;
77051;SDS011;65980;44.898;8.602;2023-10-09T16:15:17;13.93;;;5.45;;
77051;SDS011;65980;44.898;8.602;2023-10-09T16:18:22;14.15;;;6.30;;
77051;SDS011;65980;44.898;8.602;2023-10-09T16:21:26;14.30;;;7.10;;
77051;SDS011;65980;44.898;8.602;2023-10-09T16:24:31;15.25;;;7.20;;
77051;SDS011;65980;44.898;8.602;2023-10-09T16:27:38;14.80;;;5.47;;
77051;SDS011;65980;44.898;8.602;2023-10-09T16:30:50;14.95;;;6.55;;
77051;SDS011;65980;44.898;8.602;2023-10-09T16:33:55;17.70;;;5.40;;
77051;SDS011;65980;44.898;8.602;2023-10-09T16:36:59;8.90;;;5.13;;
77051;SDS011;65980;44.898;8.602;2023-10-09T16:40:04;15.15;;;4.85;;
77051;SDS011;65980;44.898;8.602;2023-10-09T16:43:15;11.60;;;4.93;;
77051;SDS011;65980;44.898;8.602;2023-10-09T16:46:22;11.13;;;5.10;;
77051;SDS011;65980;44.898;8.602;2023-10-09T16:49:28;9.75;;;4.95;;
77051;SDS011;65980;44.898;8.602;2023-10-09T16:52:34;11.43;;;4.72;;
77051;SDS011;65980;44.898;8.602;2023-10-09T16:55:42;10.27;;;5.43;;
77051;SDS011;65980;44.898;8.602;2023-10-09T16:58:49;16.38;;;5.97;;
77051;SDS011;65980;44.898;8.602;2023-10-09T17:01:56;14.10;;;5.38;;
77051;SDS011;65980;44.898;8.602;2023-10-09T17:05:01;13.05;;;5.03;;
77051;SDS011;65980;44.898;8.602;2023-10-09T17:08:08;12.75;;;5.07;;
77051;SDS011;65980;44.898;8.602;2023-10-09T17:11:15;10.98;;;5.05;;
77051;SDS011;65980;44.898;8.602;2023-10-09T17:14:25;9.52;;;4.50;;
77051;SDS011;65980;44.898;8.602;2023-10-09T17:17:31;11.90;;;4.57;;
77051;SDS011;65980;44.898;8.602;2023-10-09T17:20:41;10.95;;;4.70;;
77051;SDS011;65980;44.898;8.602;2023-10-09T17:23:53;9.82;;;4.40;;
77051;SDS011;65980;44.898;8.602;2023-10-09T17:26:58;14.95;;;4.70;;
77051;SDS011;65980;44.898;8.602;2023-10-09T17:30:05;11.48;;;4.80;;
77051;SDS011;65980;44.898;8.602;2023-10-09T17:33:09;14.45;;;5.25;;
77051;SDS011;65980;44.898;8.602;2023-10-09T17:36:13;8.77;;;5.20;;
77051;SDS011;65980;44.898;8.602;2023-10-09T17:39:21;12.48;;;5.32;;
77051;SDS011;65980;44.898;8.602;2023-10-09T17:42:29;9.55;;;5.00;;
77051;SDS011;65980;44.898;8.602;2023-10-09T17:45:36;8.63;;;4.97;;
77051;SDS011;65980;44.898;8.602;2023-10-09T17:48:46;13.35;;;5.20;;
77051;SDS011;65980;44.898;8.602;2023-10-09T17:51:51;12.20;;;5.50;;
77051;SDS011;65980;44.898;8.602;2023-10-09T17:54:56;9.43;;;5.63;;
77051;SDS011;65980;44.898;8.602;2023-10-09T17:58:05;17.77;;;5.57;;
77051;SDS011;65980;44.898;8.602;2023-10-09T18:01:10;11.85;;;5.35;;
77051;SDS011;65980;44.898;8.602;2023-10-09T18:04:14;16.77;;;5.53;;
77051;SDS011;65980;44.898;8.602;2023-10-09T18:07:18;16.25;;;5.57;;
77051;SDS011;65980;44.898;8.602;2023-10-09T18:10:22;14.50;;;5.57;;
77051;SDS011;65980;44.898;8.602;2023-10-09T18:13:26;12.85;;;5.90;;
77051;SDS011;65980;44.898;8.602;2023-10-09T18:16:31;10.07;;;5.20;;
77051;SDS011;65980;44.898;8.602;2023-10-09T18:19:36;8.63;;;5.28;;
77051;SDS011;65980;44.898;8.602;2023-10-09T18:22:43;14.07;;;5.50;;
77051;SDS011;65980;44.898;8.602;2023-10-09T18:25:55;8.13;;;5.55;;
77051;SDS011;65980;44.898;8.602;2023-10-09T18:29:02;10.65;;;5.25;;
77051;SDS011;65980;44.898;8.602;2023-10-09T18:32:07;8.98;;;5.35;;
77051;SDS011;65980;44.898;8.602;2023-10-09T18:35:12;13.80;;;5.40;;
77051;SDS011;65980;44.898;8.602;2023-10-09T18:38:24;15.23;;;5.78;;
77051;SDS011;65980;44.898;8.602;2023-10-09T18:41:32;10.38;;;5.55;;
77051;SDS011;65980;44.898;8.602;2023-10-09T18:44:40;12.77;;;6.05;;
77051;SDS011;65980;44.898;8.602;2023-10-09T18:47:50;12.98;;;5.63;;
77051;SDS011;65980;44.898;8.602;2023-10-09T18:50:55;10.93;;;5.60;;
77051;SDS011;65980;44.898;8.602;2023-10-09T18:54:01;9.15;;;5.40;;
77051;SDS011;65980;44.898;8.602;2023-10-09T18:57:08;9.52;;;5.88;;
77051;SDS011;65980;44.898;8.602;2023-10-09T19:00:13;13.90;;;5.70;;
77051;SDS011;65980;44.898;8.602;2023-10-09T19:03:32;9.90;;;5.53;;
77051;SDS011;65980;44.898;8.602;2023-10-09T19:06:37;9.73;;;5.88;;
77051;SDS011;65980;44.898;8.602;2023-10-09T19:09:41;13.10;;;5.90;;
77051;SDS011;65980;44.898;8.602;2023-10-09T19:12:45;8.88;;;5.28;;
77051;SDS011;65980;44.898;8.602;2023-10-09T19:15:52;14.55;;;6.28;;
77051;SDS011;65980;44.898;8.602;2023-10-09T19:18:56;11.23;;;5.20;;
77051;SDS011;65980;44.898;8.602;2023-10-09T19:22:08;9.60;;;5.72;;
77051;SDS011;65980;44.898;8.602;2023-10-09T19:25:13;9.02;;;5.45;;
77051;SDS011;65980;44.898;8.602;2023-10-09T19:28:22;11.82;;;5.65;;
77051;SDS011;65980;44.898;8.602;2023-10-09T19:31:28;7.88;;;5.65;;
77051;SDS011;65980;44.898;8.602;2023-10-09T19:34:36;11.07;;;5.88;;
77051;SDS011;65980;44.898;8.602;2023-10-09T19:37:41;10.10;;;5.45;;
77051;SDS011;65980;44.898;8.602;2023-10-09T19:40:50;10.70;;;5.38;;
77051;SDS011;65980;44.898;8.602;2023-10-09T19:43:55;9.40;;;5.82;;
77051;SDS011;65980;44.898;8.602;2023-10-09T19:47:01;10.82;;;5.80;;
77051;SDS011;65980;44.898;8.602;2023-10-09T19:50:09;10.88;;;5.78;;
77051;SDS011;65980;44.898;8.602;2023-10-09T19:53:18;11.52;;;5.65;;
77051;SDS011;65980;44.898;8.602;2023-10-09T19:56:22;11.02;;;5.78;;
77051;SDS011;65980;44.898;8.602;2023-10-09T19:59:27;12.00;;;6.00;;
77051;SDS011;65980;44.898;8.602;2023-10-09T20:02:33;10.27;;;5.95;;
77051;SDS011;65980;44.898;8.602;2023-10-09T20:05:38;15.55;;;6.80;;
77051;SDS011;65980;44.898;8.602;2023-10-09T20:08:43;9.82;;;5.47;;
77051;SDS011;65980;44.898;8.602;2023-10-09T20:11:54;10.07;;;6.32;;
77051;SDS011;65980;44.898;8.602;2023-10-09T20:15:00;9.15;;;5.40;;
77051;SDS011;65980;44.898;8.602;2023-10-09T20:18:04;8.55;;;6.13;;
77051;SDS011;65980;44.898;8.602;2023-10-09T20:21:11;13.65;;;6.13;;
77051;SDS011;65980;44.898;8.602;2023-10-09T20:24:17;9.98;;;5.65;;
77051;SDS011;65980;44.898;8.602;2023-10-09T20:27:22;7.55;;;5.47;;